sensor_id;sensor_type;location;lat;lon;timestamp;pressure;altitude;pressure_sealevel;temperature;humidity
78509;BME280;67802;50.846;7.958;2023-07-13T00:00:11;97848.47;;;22.95;40.88
78509;BME280;67802;50.846;7.958;2023-07-13T00:02:37;97849.47;;;22.94;40.74
78509;BME280;67802;50.846;7.958;2023-07-13T00:05:02;97840.81;;;22.92;40.95
78509;BME280;67802;50.846;7.958;2023-07-13T00:07:28;97846.13;;;22.92;40.65
78509;BME280;67802;50.846;7.958;2023-07-13T00:09:53;97844.44;;;22.91;40.71
78509;BME280;67802;50.846;7.958;2023-07-13T00:12:27;97835.81;;;22.89;41.05
78509;BME280;67802;50.846;7.958;2023-07-13T00:14:55;97840.28;;;22.89;41.22
78509;BME280;67802;50.846;7.958;2023-07-13T00:17:21;97842.09;;;22.88;40.98
78509;BME280;67802;50.846;7.958;2023-07-13T00:19:46;97835.28;;;22.86;41.09
78509;BME280;67802;50.846;7.958;2023-07-13T00:22:12;97831.94;;;22.83;41.15
78509;BME280;67802;50.846;7.958;2023-07-13T00:24:37;97832.06;;;22.82;40.94
78509;BME280;67802;50.846;7.958;2023-07-13T00:27:09;97828.72;;;22.80;40.65
78509;BME280;67802;50.846;7.958;2023-07-13T00:29:35;97833.38;;;22.78;40.65
78509;BME280;67802;50.846;7.958;2023-07-13T00:32:03;97830.84;;;22.76;40.68
78509;BME280;67802;50.846;7.958;2023-07-13T00:34:28;97831.00;;;22.75;40.60
78509;BME280;67802;50.846;7.958;2023-07-13T00:36:54;97827.50;;;22.74;40.58
78509;BME280;67802;50.846;7.958;2023-07-13T00:39:19;97819.72;;;22.73;40.27
78509;BME280;67802;50.846;7.958;2023-07-13T00:41:46;97820.81;;;22.70;40.47
78509;BME280;67802;50.846;7.958;2023-07-13T00:44:16;97820.81;;;22.70;40.65
78509;BME280;67802;50.846;7.958;2023-07-13T00:46:42;97825.31;;;22.70;41.11
78509;BME280;67802;50.846;7.958;2023-07-13T00:49:10;97823.63;;;22.68;40.96
78509;BME280;67802;50.846;7.958;2023-07-13T00:51:47;97826.41;;;22.67;40.97
78509;BME280;67802;50.846;7.958;2023-07-13T00:54:14;97825.59;;;22.66;41.20
78509;BME280;67802;50.846;7.958;2023-07-13T00:56:41;97825.59;;;22.66;41.48
78509;BME280;67802;50.846;7.958;2023-07-13T00:59:10;97827.38;;;22.66;41.27
78509;BME280;67802;50.846;7.958;2023-07-13T01:01:36;97827.53;;;22.64;41.54
78509;BME280;67802;50.846;7.958;2023-07-13T01:04:02;97832.84;;;22.64;41.39
78509;BME280;67802;50.846;7.958;2023-07-13T01:06:28;97830.31;;;22.63;41.76
78509;BME280;67802;50.846;7.958;2023-07-13T01:08:55;97830.31;;;22.63;41.66
78509;BME280;67802;50.846;7.958;2023-07-13T01:11:21;97835.75;;;22.61;41.51
78509;BME280;67802;50.846;7.958;2023-07-13T01:13:48;97842.84;;;22.61;41.60
78509;BME280;67802;50.846;7.958;2023-07-13T01:16:27;97842.03;;;22.60;41.95
78509;BME280;67802;50.846;7.958;2023-07-13T01:18:53;97840.38;;;22.59;41.63
78509;BME280;67802;50.846;7.958;2023-07-13T01:21:19;97838.69;;;22.58;42.07
78509;BME280;67802;50.846;7.958;2023-07-13T01:23:44;97838.69;;;22.58;41.56
78509;BME280;67802;50.846;7.958;2023-07-13T01:26:10;97837.03;;;22.57;41.79
78509;BME280;67802;50.846;7.958;2023-07-13T01:28:37;97848.59;;;22.56;41.79
78509;BME280;67802;50.846;7.958;2023-07-13T01:31:03;97843.41;;;22.55;41.75
78509;BME280;67802;50.846;7.958;2023-07-13T01:33:29;97844.41;;;22.53;41.89
78509;BME280;67802;50.846;7.958;2023-07-13T01:35:55;97840.09;;;22.52;41.99
78509;BME280;67802;50.846;7.958;2023-07-13T01:38:23;97844.56;;;22.52;41.93
78509;BME280;67802;50.846;7.958;2023-07-13T01:40:49;97837.59;;;22.51;41.82
78509;BME280;67802;50.846;7.958;2023-07-13T01:43:15;97829.66;;;22.51;42.05
78509;BME280;67802;50.846;7.958;2023-07-13T01:45:40;97831.59;;;22.49;42.13
78509;BME280;67802;50.846;7.958;2023-07-13T01:48:06;97829.94;;;22.48;42.17
78509;BME280;67802;50.846;7.958;2023-07-13T01:50:34;97829.25;;;22.46;42.12
78509;BME280;67802;50.846;7.958;2023-07-13T01:52:59;97829.25;;;22.46;42.06
78509;BME280;67802;50.846;7.958;2023-07-13T01:55:25;97822.28;;;22.45;41.88
78509;BME280;67802;50.846;7.958;2023-07-13T01:57:50;97825.91;;;22.44;41.78
78509;BME280;67802;50.846;7.958;2023-07-13T02:00:16;97819.88;;;22.42;41.79
78509;BME280;67802;50.846;7.958;2023-07-13T02:02:42;97827.81;;;22.42;41.91
78509;BME280;67802;50.846;7.958;2023-07-13T02:05:08;97827.81;;;22.42;41.58
78509;BME280;67802;50.846;7.958;2023-07-13T02:07:33;97824.47;;;22.39;41.92
78509;BME280;67802;50.846;7.958;2023-07-13T02:09:58;97831.59;;;22.39;41.96
78509;BME280;67802;50.846;7.958;2023-07-13T02:12:24;97825.59;;;22.37;41.65
78509;BME280;67802;50.846;7.958;2023-07-13T02:14:49;97832.69;;;22.36;41.90
78509;BME280;67802;50.846;7.958;2023-07-13T02:17:15;97836.31;;;22.35;41.94
78509;BME280;67802;50.846;7.958;2023-07-13T02:19:40;97829.34;;;22.34;41.93
78509;BME280;67802;50.846;7.958;2023-07-13T02:22:06;97830.34;;;22.33;42.12
78509;BME280;67802;50.846;7.958;2023-07-13T02:24:31;97834.81;;;22.33;42.00
78509;BME280;67802;50.846;7.958;2023-07-13T02:26:56;97833.94;;;22.32;42.31
78509;BME280;67802;50.846;7.958;2023-07-13T02:29:22;97835.91;;;22.30;41.79
78509;BME280;67802;50.846;7.958;2023-07-13T02:31:47;97834.22;;;22.29;42.15
78509;BME280;67802;50.846;7.958;2023-07-13T02:34:13;97830.88;;;22.27;42.13
78509;BME280;67802;50.846;7.958;2023-07-13T02:36:38;97830.06;;;22.27;42.46
78509;BME280;67802;50.846;7.958;2023-07-13T02:39:05;97832.88;;;22.25;42.41
78509;BME280;67802;50.846;7.958;2023-07-13T02:41:31;97834.66;;;22.24;42.25
78509;BME280;67802;50.846;7.958;2023-07-13T02:43:58;97836.50;;;22.24;42.44
78509;BME280;67802;50.846;7.958;2023-07-13T02:46:30;97834.81;;;22.23;42.14
78509;BME280;67802;50.846;7.958;2023-07-13T02:48:55;97834.13;;;22.21;42.33
78509;BME280;67802;50.846;7.958;2023-07-13T02:51:20;97843.03;;;22.20;42.54
78509;BME280;67802;50.846;7.958;2023-07-13T02:53:46;97838.72;;;22.19;42.21
78509;BME280;67802;50.846;7.958;2023-07-13T02:56:11;97834.41;;;22.18;42.31
78509;BME280;67802;50.846;7.958;2023-07-13T02:58:37;97834.41;;;22.18;42.53
78509;BME280;67802;50.846;7.958;2023-07-13T03:01:08;97845.09;;;22.16;42.36
78509;BME280;67802;50.846;7.958;2023-07-13T03:03:33;97842.63;;;22.15;42.65
78509;BME280;67802;50.846;7.958;2023-07-13T03:06:00;97835.66;;;22.14;42.39
78509;BME280;67802;50.846;7.958;2023-07-13T03:08:27;97839.28;;;22.13;42.42
78509;BME280;67802;50.846;7.958;2023-07-13T03:11:00;97850.84;;;22.12;42.58
78509;BME280;67802;50.846;7.958;2023-07-13T03:13:25;97846.50;;;22.11;42.45
78509;BME280;67802;50.846;7.958;2023-07-13T03:15:51;97845.66;;;22.10;42.57
78509;BME280;67802;50.846;7.958;2023-07-13T03:18:16;97848.47;;;22.08;42.46
78509;BME280;67802;50.846;7.958;2023-07-13T03:20:41;97846.78;;;22.07;42.69
78509;BME280;67802;50.846;7.958;2023-07-13T03:23:06;97847.75;;;22.06;42.36
78509;BME280;67802;50.846;7.958;2023-07-13T03:25:32;97854.03;;;22.05;42.40
78509;BME280;67802;50.846;7.958;2023-07-13T03:27:57;97855.00;;;22.04;42.77
78509;BME280;67802;50.846;7.958;2023-07-13T03:30:22;97852.34;;;22.04;42.47
78509;BME280;67802;50.846;7.958;2023-07-13T03:32:48;97860.28;;;22.04;42.61
78509;BME280;67802;50.846;7.958;2023-07-13T03:35:14;97861.38;;;22.02;42.49
78509;BME280;67802;50.846;7.958;2023-07-13T03:37:39;97864.88;;;22.02;42.71
78509;BME280;67802;50.846;7.958;2023-07-13T03:40:08;97872.13;;;22.00;42.44
78509;BME280;67802;50.846;7.958;2023-07-13T03:42:34;97864.19;;;22.00;42.52
78509;BME280;67802;50.846;7.958;2023-07-13T03:45:00;97873.09;;;21.99;42.64
78509;BME280;67802;50.846;7.958;2023-07-13T03:47:25;97876.72;;;21.98;42.64
78509;BME280;67802;50.846;7.958;2023-07-13T03:49:50;97882.97;;;21.97;42.42
78509;BME280;67802;50.846;7.958;2023-07-13T03:52:16;97870.72;;;21.96;42.76
78509;BME280;67802;50.846;7.958;2023-07-13T03:54:41;97881.31;;;21.96;42.88
78509;BME280;67802;50.846;7.958;2023-07-13T03:57:09;97877.84;;;21.96;42.80
78509;BME280;67802;50.846;7.958;2023-07-13T03:59:34;97877.97;;;21.94;42.40
78509;BME280;67802;50.846;7.958;2023-07-13T04:02:00;97885.78;;;21.96;42.74
78509;BME280;67802;50.846;7.958;2023-07-13T04:04:26;97878.81;;;21.94;42.62
78509;BME280;67802;50.846;7.958;2023-07-13T04:06:51;97877.97;;;21.94;42.63
78509;BME280;67802;50.846;7.958;2023-07-13T04:09:18;97871.00;;;21.93;42.66
78509;BME280;67802;50.846;7.958;2023-07-13T04:11:44;97873.63;;;21.93;42.66
78509;BME280;67802;50.846;7.958;2023-07-13T04:14:09;97881.56;;;21.93;42.53
78509;BME280;67802;50.846;7.958;2023-07-13T04:16:34;97879.78;;;21.93;42.53
78509;BME280;67802;50.846;7.958;2023-07-13T04:19:00;97887.56;;;21.95;42.59
78509;BME280;67802;50.846;7.958;2023-07-13T04:21:27;97886.59;;;21.96;42.82
78509;BME280;67802;50.846;7.958;2023-07-13T04:23:53;97888.25;;;21.97;42.67
78509;BME280;67802;50.846;7.958;2023-07-13T04:26:18;97887.28;;;21.98;42.53
78509;BME280;67802;50.846;7.958;2023-07-13T04:28:46;97895.66;;;22.03;42.35
78509;BME280;67802;50.846;7.958;2023-07-13T04:31:12;97896.34;;;22.05;42.40
78509;BME280;67802;50.846;7.958;2023-07-13T04:33:38;97890.78;;;22.08;42.47
78509;BME280;67802;50.846;7.958;2023-07-13T04:36:04;97886.91;;;22.13;42.06
78509;BME280;67802;50.846;7.958;2023-07-13T04:38:30;97889.97;;;22.18;41.94
78509;BME280;67802;50.846;7.958;2023-07-13T04:40:59;97894.13;;;22.20;42.04
78509;BME280;67802;50.846;7.958;2023-07-13T04:43:25;97904.31;;;22.25;41.67
78509;BME280;67802;50.846;7.958;2023-07-13T04:45:51;97897.75;;;22.29;41.89
78509;BME280;67802;50.846;7.958;2023-07-13T04:48:17;97886.88;;;22.32;41.41
78509;BME280;67802;50.846;7.958;2023-07-13T04:50:43;97888.28;;;22.36;41.72
78509;BME280;67802;50.846;7.958;2023-07-13T04:53:09;97884.38;;;22.41;41.49
78509;BME280;67802;50.846;7.958;2023-07-13T04:55:35;97886.78;;;22.44;41.34
78509;BME280;67802;50.846;7.958;2023-07-13T04:58:01;97886.38;;;22.48;41.19
78509;BME280;67802;50.846;7.958;2023-07-13T05:00:28;97886.75;;;22.53;41.02
78509;BME280;67802;50.846;7.958;2023-07-13T05:02:55;97894.13;;;22.60;41.08
78509;BME280;67802;50.846;7.958;2023-07-13T05:05:22;97901.22;;;22.69;41.02
78509;BME280;67802;50.846;7.958;2023-07-13T05:07:47;97898.19;;;22.74;40.63
78509;BME280;67802;50.846;7.958;2023-07-13T05:10:12;97893.25;;;22.79;40.75
78509;BME280;67802;50.846;7.958;2023-07-13T05:12:38;97891.88;;;22.85;40.24
78509;BME280;67802;50.846;7.958;2023-07-13T05:15:04;97895.06;;;22.88;40.45
78509;BME280;67802;50.846;7.958;2023-07-13T05:17:29;97896.03;;;22.87;40.29
78509;BME280;67802;50.846;7.958;2023-07-13T05:19:54;97900.81;;;22.83;40.06
78509;BME280;67802;50.846;7.958;2023-07-13T05:22:20;97897.75;;;22.78;39.90
78509;BME280;67802;50.846;7.958;2023-07-13T05:24:46;97890.25;;;22.74;40.22
78509;BME280;67802;50.846;7.958;2023-07-13T05:27:11;97904.72;;;22.70;40.18
78509;BME280;67802;50.846;7.958;2023-07-13T05:29:36;97897.34;;;22.63;40.28
78509;BME280;67802;50.846;7.958;2023-07-13T05:32:02;97906.69;;;22.58;40.36
78509;BME280;67802;50.846;7.958;2023-07-13T05:34:27;97901.13;;;22.51;40.61
78509;BME280;67802;50.846;7.958;2023-07-13T05:36:52;97908.63;;;22.46;40.41
78509;BME280;67802;50.846;7.958;2023-07-13T05:39:18;97912.50;;;22.42;40.59
78509;BME280;67802;50.846;7.958;2023-07-13T05:41:44;97911.81;;;22.39;40.80
78509;BME280;67802;50.846;7.958;2023-07-13T05:44:09;97912.09;;;22.36;40.41
78509;BME280;67802;50.846;7.958;2023-07-13T05:46:34;97916.69;;;22.34;40.49
78509;BME280;67802;50.846;7.958;2023-07-13T05:49:00;97917.53;;;22.35;40.82
78509;BME280;67802;50.846;7.958;2023-07-13T05:51:26;97920.31;;;22.33;40.96
78509;BME280;67802;50.846;7.958;2023-07-13T05:53:51;97928.25;;;22.33;40.68
78509;BME280;67802;50.846;7.958;2023-07-13T05:56:16;97924.91;;;22.31;40.99
78509;BME280;67802;50.846;7.958;2023-07-13T05:58:42;97918.63;;;22.32;40.72
78509;BME280;67802;50.846;7.958;2023-07-13T06:01:11;97924.91;;;22.31;40.71
78509;BME280;67802;50.846;7.958;2023-07-13T06:03:36;97923.94;;;22.32;40.78
78509;BME280;67802;50.846;7.958;2023-07-13T06:06:05;97922.25;;;22.31;40.47
78509;BME280;67802;50.846;7.958;2023-07-13T06:08:31;97923.94;;;22.32;40.48
78509;BME280;67802;50.846;7.958;2023-07-13T06:11:17;97920.59;;;22.30;40.72
78509;BME280;67802;50.846;7.958;2023-07-13T06:13:43;97922.25;;;22.31;40.62
78509;BME280;67802;50.846;7.958;2023-07-13T06:16:09;97938.13;;;22.31;40.74
78509;BME280;67802;50.846;7.958;2023-07-13T06:18:36;97946.06;;;22.31;40.80
78509;BME280;67802;50.846;7.958;2023-07-13T06:21:08;97938.97;;;22.32;40.53
78509;BME280;67802;50.846;7.958;2023-07-13T06:23:34;97937.84;;;22.34;40.80
78509;BME280;67802;50.846;7.958;2023-07-13T06:25:59;97936.19;;;22.33;40.70
78509;BME280;67802;50.846;7.958;2023-07-13T06:28:25;97932.84;;;22.31;40.79
78509;BME280;67802;50.846;7.958;2023-07-13T06:30:50;97938.13;;;22.31;40.74
78509;BME280;67802;50.846;7.958;2023-07-13T06:33:15;97932.84;;;22.31;41.22
78509;BME280;67802;50.846;7.958;2023-07-13T06:35:41;97946.91;;;22.32;41.52
78509;BME280;67802;50.846;7.958;2023-07-13T06:38:07;97946.78;;;22.33;41.36
78509;BME280;67802;50.846;7.958;2023-07-13T06:40:32;97940.50;;;22.34;41.40
78509;BME280;67802;50.846;7.958;2023-07-13T06:42:57;97949.13;;;22.36;41.38
78509;BME280;67802;50.846;7.958;2023-07-13T06:45:23;97943.72;;;22.38;41.66
78509;BME280;67802;50.846;7.958;2023-07-13T06:47:48;97938.97;;;22.42;41.84
78509;BME280;67802;50.846;7.958;2023-07-13T06:50:14;97950.41;;;22.42;41.80
78509;BME280;67802;50.846;7.958;2023-07-13T06:52:40;97949.56;;;22.42;41.83
78509;BME280;67802;50.846;7.958;2023-07-13T06:55:05;97956.69;;;22.41;41.91
78509;BME280;67802;50.846;7.958;2023-07-13T06:57:31;97959.34;;;22.41;42.08
78509;BME280;67802;50.846;7.958;2023-07-13T06:59:56;97967.13;;;22.43;41.84
78509;BME280;67802;50.846;7.958;2023-07-13T07:02:22;97950.53;;;22.41;41.84
78509;BME280;67802;50.846;7.958;2023-07-13T07:04:47;97958.47;;;22.41;41.89
78509;BME280;67802;50.846;7.958;2023-07-13T07:07:13;97958.34;;;22.42;42.24
78509;BME280;67802;50.846;7.958;2023-07-13T07:09:38;97953.19;;;22.41;41.74
78509;BME280;67802;50.846;7.958;2023-07-13T07:12:04;97959.34;;;22.41;41.79
78509;BME280;67802;50.846;7.958;2023-07-13T07:14:30;97957.38;;;22.43;42.02
78509;BME280;67802;50.846;7.958;2023-07-13T07:16:55;97961.81;;;22.43;41.69
78509;BME280;67802;50.846;7.958;2023-07-13T07:19:20;97960.03;;;22.43;41.88
78509;BME280;67802;50.846;7.958;2023-07-13T07:21:46;97960.03;;;22.43;42.05
78509;BME280;67802;50.846;7.958;2023-07-13T07:24:11;97962.56;;;22.45;42.06
78509;BME280;67802;50.846;7.958;2023-07-13T07:26:36;97965.19;;;22.45;41.97
78509;BME280;67802;50.846;7.958;2023-07-13T07:29:02;97966.06;;;22.45;42.11
78509;BME280;67802;50.846;7.958;2023-07-13T07:31:27;97967.84;;;22.45;42.13
78509;BME280;67802;50.846;7.958;2023-07-13T07:33:52;97970.50;;;22.45;42.16
78509;BME280;67802;50.846;7.958;2023-07-13T07:36:18;97974.97;;;22.44;42.20
78509;BME280;67802;50.846;7.958;2023-07-13T07:38:43;97967.13;;;22.43;41.99
78509;BME280;67802;50.846;7.958;2023-07-13T07:41:09;97977.72;;;22.43;42.14
78509;BME280;67802;50.846;7.958;2023-07-13T07:43:34;97967.97;;;22.43;42.14
78509;BME280;67802;50.846;7.958;2023-07-13T07:46:00;97961.81;;;22.43;42.40
78509;BME280;67802;50.846;7.958;2023-07-13T07:48:25;97968.09;;;22.42;42.55
78509;BME280;67802;50.846;7.958;2023-07-13T07:50:50;97966.28;;;22.42;42.33
78509;BME280;67802;50.846;7.958;2023-07-13T07:53:16;97966.28;;;22.42;42.60
78509;BME280;67802;50.846;7.958;2023-07-13T07:55:41;97969.06;;;22.41;42.37
78509;BME280;67802;50.846;7.958;2023-07-13T07:58:06;97973.38;;;22.42;42.45
78509;BME280;67802;50.846;7.958;2023-07-13T08:00:32;97967.13;;;22.43;42.33
78509;BME280;67802;50.846;7.958;2023-07-13T08:02:58;97968.81;;;22.44;42.35
78509;BME280;67802;50.846;7.958;2023-07-13T08:05:24;97968.81;;;22.44;42.33
78509;BME280;67802;50.846;7.958;2023-07-13T08:07:49;97968.81;;;22.44;42.65
78509;BME280;67802;50.846;7.958;2023-07-13T08:10:15;97974.13;;;22.44;42.42
78509;BME280;67802;50.846;7.958;2023-07-13T08:12:40;97975.22;;;22.41;42.72
78509;BME280;67802;50.846;7.958;2023-07-13T08:15:10;97965.44;;;22.42;42.70
78509;BME280;67802;50.846;7.958;2023-07-13T08:17:35;97968.09;;;22.42;42.66
78509;BME280;67802;50.846;7.958;2023-07-13T08:20:00;97971.72;;;22.41;42.70
78509;BME280;67802;50.846;7.958;2023-07-13T08:22:26;97973.53;;;22.40;42.83
78509;BME280;67802;50.846;7.958;2023-07-13T08:24:52;97967.41;;;22.39;42.56
78509;BME280;67802;50.846;7.958;2023-07-13T08:27:22;97967.41;;;22.39;42.46
78509;BME280;67802;50.846;7.958;2023-07-13T08:29:48;97969.06;;;22.41;42.49
78509;BME280;67802;50.846;7.958;2023-07-13T08:32:13;97967.41;;;22.39;42.78
78509;BME280;67802;50.846;7.958;2023-07-13T08:34:39;97963.78;;;22.41;42.78
78509;BME280;67802;50.846;7.958;2023-07-13T08:37:05;97975.22;;;22.41;42.56
78509;BME280;67802;50.846;7.958;2023-07-13T08:39:31;97969.91;;;22.41;42.72
78509;BME280;67802;50.846;7.958;2023-07-13T08:42:11;97964.75;;;22.39;42.60
78509;BME280;67802;50.846;7.958;2023-07-13T08:47:32;97963.78;;;22.41;42.54
78509;BME280;67802;50.846;7.958;2023-07-13T08:49:58;97963.78;;;22.41;42.91
78509;BME280;67802;50.846;7.958;2023-07-13T08:52:34;97967.41;;;22.39;42.68
78509;BME280;67802;50.846;7.958;2023-07-13T08:55:09;97968.25;;;22.40;42.55
78509;BME280;67802;50.846;7.958;2023-07-13T08:57:38;97976.88;;;22.42;42.62
78509;BME280;67802;50.846;7.958;2023-07-13T09:00:08;97971.72;;;22.41;42.49
78509;BME280;67802;50.846;7.958;2023-07-13T09:02:42;97962.09;;;22.39;42.84
78509;BME280;67802;50.846;7.958;2023-07-13T09:05:24;97964.63;;;22.41;42.59
78509;BME280;67802;50.846;7.958;2023-07-13T09:10:51;97965.44;;;22.42;42.55
78509;BME280;67802;50.846;7.958;2023-07-13T09:13:30;97955.84;;;22.41;42.79
78509;BME280;67802;50.846;7.958;2023-07-13T09:16:00;97960.16;;;22.42;42.64
78509;BME280;67802;50.846;7.958;2023-07-13T09:18:49;97961.81;;;22.43;42.64
78509;BME280;67802;50.846;7.958;2023-07-13T09:21:17;97962.69;;;22.43;42.62
78509;BME280;67802;50.846;7.958;2023-07-13T09:23:43;97957.38;;;22.43;42.65
78509;BME280;67802;50.846;7.958;2023-07-13T09:26:14;97954.72;;;22.43;42.95
78509;BME280;67802;50.846;7.958;2023-07-13T09:28:43;97958.22;;;22.44;42.65
78509;BME280;67802;50.846;7.958;2023-07-13T09:31:32;97958.22;;;22.44;42.84
78509;BME280;67802;50.846;7.958;2023-07-13T09:33:59;97966.19;;;22.44;42.76
78509;BME280;67802;50.846;7.958;2023-07-13T09:36:32;97954.63;;;22.45;42.73
78509;BME280;67802;50.846;7.958;2023-07-13T09:39:04;97965.19;;;22.45;42.57
78509;BME280;67802;50.846;7.958;2023-07-13T09:44:37;97965.19;;;22.45;42.82
78509;BME280;67802;50.846;7.958;2023-07-13T09:47:14;97969.69;;;22.44;42.91
78509;BME280;67802;50.846;7.958;2023-07-13T09:49:41;97966.88;;;22.46;42.65
78509;BME280;67802;50.846;7.958;2023-07-13T09:52:12;97973.16;;;22.45;42.90
78509;BME280;67802;50.846;7.958;2023-07-13T09:54:39;97986.38;;;22.45;42.71
78509;BME280;67802;50.846;7.958;2023-07-13T09:57:19;97980.09;;;22.46;42.77
78509;BME280;67802;50.846;7.958;2023-07-13T09:59:49;97974.81;;;22.46;42.69
78509;BME280;67802;50.846;7.958;2023-07-13T10:02:34;97980.09;;;22.46;43.02
78509;BME280;67802;50.846;7.958;2023-07-13T10:07:26;97970.38;;;22.46;43.08
78509;BME280;67802;50.846;7.958;2023-07-13T10:09:56;97962.28;;;22.48;43.13
78509;BME280;67802;50.846;7.958;2023-07-13T10:12:22;97973.72;;;22.48;42.94
78509;BME280;67802;50.846;7.958;2023-07-13T10:14:55;97979.13;;;22.47;42.78
78509;BME280;67802;50.846;7.958;2023-07-13T10:17:31;97977.19;;;22.49;42.73
78509;BME280;67802;50.846;7.958;2023-07-13T10:20:00;97972.75;;;22.49;42.86
78509;BME280;67802;50.846;7.958;2023-07-13T10:22:31;97976.22;;;22.50;42.96
78509;BME280;67802;50.846;7.958;2023-07-13T10:25:01;97975.25;;;22.51;42.70
78509;BME280;67802;50.846;7.958;2023-07-13T10:27:34;97977.88;;;22.51;42.90
78509;BME280;67802;50.846;7.958;2023-07-13T10:30:17;97969.94;;;22.51;43.15
78509;BME280;67802;50.846;7.958;2023-07-13T10:32:45;97975.25;;;22.51;42.96
78509;BME280;67802;50.846;7.958;2023-07-13T10:35:13;97979.56;;;22.52;42.70
78509;BME280;67802;50.846;7.958;2023-07-13T10:40:16;97984.84;;;22.52;42.78
78509;BME280;67802;50.846;7.958;2023-07-13T10:42:46;97982.22;;;22.52;42.95
78509;BME280;67802;50.846;7.958;2023-07-13T10:45:15;97971.63;;;22.52;43.24
78509;BME280;67802;50.846;7.958;2023-07-13T10:47:42;97978.59;;;22.53;42.82
78509;BME280;67802;50.846;7.958;2023-07-13T10:50:15;97981.22;;;22.53;42.86
78509;BME280;67802;50.846;7.958;2023-07-13T10:52:48;97982.91;;;22.54;42.90
78509;BME280;67802;50.846;7.958;2023-07-13T11:03:27;97979.97;;;22.57;42.98
78509;BME280;67802;50.846;7.958;2023-07-13T11:06:08;97980.09;;;22.56;42.91
78509;BME280;67802;50.846;7.958;2023-07-13T11:08:37;97984.44;;;22.57;43.12
78509;BME280;67802;50.846;7.958;2023-07-13T11:11:05;97979.97;;;22.57;43.18
78509;BME280;67802;50.846;7.958;2023-07-13T11:19:35;97981.66;;;22.58;43.09
78509;BME280;67802;50.846;7.958;2023-07-13T11:21:34;97983.31;;;22.59;42.92
78509;BME280;67802;50.846;7.958;2023-07-13T11:29:27;97976.91;;;22.62;42.94
78509;BME280;67802;50.846;7.958;2023-07-13T11:32:00;97978.56;;;22.63;42.81
78509;BME280;67802;50.846;7.958;2023-07-13T11:34:33;97985.53;;;22.64;42.78
78509;BME280;67802;50.846;7.958;2023-07-13T11:37:01;97994.19;;;22.66;43.04
78509;BME280;67802;50.846;7.958;2023-07-13T11:39:32;97989.75;;;22.66;42.75
78509;BME280;67802;50.846;7.958;2023-07-13T11:42:04;97982.34;;;22.70;43.09
78509;BME280;67802;50.846;7.958;2023-07-13T11:44:32;97979.56;;;22.72;42.87
78509;BME280;67802;50.846;7.958;2023-07-13T11:47:08;97978.59;;;22.73;42.96
78509;BME280;67802;50.846;7.958;2023-07-13T11:49:42;97968.00;;;22.73;43.11
78509;BME280;67802;50.846;7.958;2023-07-13T11:52:14;97985.56;;;22.74;42.84
78509;BME280;67802;50.846;7.958;2023-07-13T11:54:55;97986.38;;;22.74;42.86
78509;BME280;67802;50.846;7.958;2023-07-13T11:59:51;97996.00;;;22.75;42.75
78509;BME280;67802;50.846;7.958;2023-07-13T12:02:29;97986.25;;;22.76;42.64
78509;BME280;67802;50.846;7.958;2023-07-13T12:04:56;97986.97;;;22.78;42.86
78509;BME280;67802;50.846;7.958;2023-07-13T12:07:22;97998.38;;;22.78;42.81
78509;BME280;67802;50.846;7.958;2023-07-13T12:09:47;97999.19;;;22.79;42.89
78509;BME280;67802;50.846;7.958;2023-07-13T12:12:28;97994.75;;;22.79;42.65
78509;BME280;67802;50.846;7.958;2023-07-13T12:14:55;97995.56;;;22.80;42.81
78509;BME280;67802;50.846;7.958;2023-07-13T12:17:23;98006.75;;;22.83;42.60
78509;BME280;67802;50.846;7.958;2023-07-13T12:19:51;98001.00;;;22.88;42.74
78509;BME280;67802;50.846;7.958;2023-07-13T12:22:19;98006.47;;;22.87;42.86
78509;BME280;67802;50.846;7.958;2023-07-13T12:24:46;97997.38;;;22.89;42.52
78509;BME280;67802;50.846;7.958;2023-07-13T12:30:24;97994.72;;;22.89;42.78
78509;BME280;67802;50.846;7.958;2023-07-13T12:33:06;98005.34;;;22.89;42.74
78509;BME280;67802;50.846;7.958;2023-07-13T12:35:40;98007.97;;;22.89;42.70
78509;BME280;67802;50.846;7.958;2023-07-13T12:38:10;98006.19;;;22.90;42.93
78509;BME280;67802;50.846;7.958;2023-07-13T12:40:36;98014.94;;;22.90;42.79
78509;BME280;67802;50.846;7.958;2023-07-13T12:43:03;98019.28;;;22.91;42.77
78509;BME280;67802;50.846;7.958;2023-07-13T12:45:32;98013.16;;;22.91;43.08
78509;BME280;67802;50.846;7.958;2023-07-13T12:48:12;98016.63;;;22.91;43.15
78509;BME280;67802;50.846;7.958;2023-07-13T12:50:41;98023.75;;;22.91;42.77
78509;BME280;67802;50.846;7.958;2023-07-13T12:53:13;98023.75;;;22.91;43.12
78509;BME280;67802;50.846;7.958;2023-07-13T12:55:48;98026.41;;;22.91;42.96
78509;BME280;67802;50.846;7.958;2023-07-13T12:58:32;98027.38;;;22.90;42.84
78509;BME280;67802;50.846;7.958;2023-07-13T13:01:02;98031.00;;;22.89;43.15
78509;BME280;67802;50.846;7.958;2023-07-13T13:03:33;98028.34;;;22.89;42.86
78509;BME280;67802;50.846;7.958;2023-07-13T13:08:41;98018.72;;;22.88;43.00
78509;BME280;67802;50.846;7.958;2023-07-13T13:11:08;98022.19;;;22.88;43.25
78509;BME280;67802;50.846;7.958;2023-07-13T13:13:34;98024.72;;;22.90;43.00
78509;BME280;67802;50.846;7.958;2023-07-13T13:16:14;98018.28;;;22.92;43.29
78509;BME280;67802;50.846;7.958;2023-07-13T13:18:42;98028.78;;;22.94;42.92
78509;BME280;67802;50.846;7.958;2023-07-13T13:23:38;98021.63;;;22.94;43.09
78509;BME280;67802;50.846;7.958;2023-07-13T13:26:10;98020.66;;;22.95;42.71
78509;BME280;67802;50.846;7.958;2023-07-13T13:28:36;98025.97;;;22.95;42.93
78509;BME280;67802;50.846;7.958;2023-07-13T13:31:01;98030.44;;;22.95;42.71
78509;BME280;67802;50.846;7.958;2023-07-13T13:33:26;98022.34;;;22.96;42.54
78509;BME280;67802;50.846;7.958;2023-07-13T13:35:52;98023.31;;;22.95;42.67
78509;BME280;67802;50.846;7.958;2023-07-13T13:38:20;98022.34;;;22.96;42.77
78509;BME280;67802;50.846;7.958;2023-07-13T13:40:48;98021.53;;;22.96;42.81
78509;BME280;67802;50.846;7.958;2023-07-13T13:43:26;98026.66;;;22.97;42.64
78509;BME280;67802;50.846;7.958;2023-07-13T13:45:53;98027.63;;;22.96;42.81